Portada
METAR-TAF:

METAR-TAF

Aeroports :

Sault Ste. Marie, Michigan, Estats Units d'Amèrica

latitud: 46-15N, longitud: 084-28W, altitud: 244 m

Observació

L'informe es va fer fa 59 minuts, a les 00:56 UTC
Vent calma
Temperatura 26°C
Humitat 58%
Pressió 1013 hPa
Visibilitat: 16.1 km
Cel clar

METAR: KCIU 280056Z AUTO 00000KT 10SM CLR 26/17 A2992 RMK AO2 SLP126 T02560172

Hora: 21:55 (01:55 UTC)


TAF: manca

Observacions i pronòstics meteorològics de més de 4000 aeroports (METAR i TAF).

Les estacions disponibles són els punts grocs i vermells al mapa.

Posi el ratolí al punt desitjat per veure el nom de l'estació.

Feu clic per veure les observacions i els pronòstics meteorològics.

Per canviar el mapa: feu clic els botons verds amb una creu de color negre per apropar; al botó verd amb un guió per allunyar la imatge; o en les fletxes verdes per a mapes adjacents.


METAR-TAF: